TimeEDT,TemperatureF,Dew PointF,Humidity,Sea Level PressureIn,VisibilityMPH,Wind Direction,Wind SpeedMPH,Gust SpeedMPH,PrecipitationIn,Events,Conditions,WindDirDegrees,DateUTC
12:56 AM,70.0,66.0,87,29.95,10.0,Calm,Calm,-,N/A,,Partly Cloudy,0,2013-05-19 04:56:00
1:56 AM,68.0,66.0,93,29.94,9.0,Calm,Calm,-,N/A,,Partly Cloudy,0,2013-05-19 05:56:00
2:56 AM,66.9,64.9,93,29.95,8.0,SE,4.6,-,N/A,,Partly Cloudy,140,2013-05-19 06:56:00
3:56 AM,66.0,64.0,93,29.95,7.0,ESE,4.6,-,N/A,,Partly Cloudy,110,2013-05-19 07:56:00
4:56 AM,66.0,64.0,93,29.96,7.0,Calm,Calm,-,N/A,,Partly Cloudy,0,2013-05-19 08:56:00
5:56 AM,66.0,64.0,93,29.95,7.0,Calm,Calm,-,N/A,,Partly Cloudy,0,2013-05-19 09:56:00
6:56 AM,64.9,63.0,93,29.95,5.0,Calm,Calm,-,N/A,,Scattered Clouds,0,2013-05-19 10:56:00
7:56 AM,66.9,64.9,93,29.97,7.0,Calm,Calm,-,N/A,,Partly Cloudy,0,2013-05-19 11:56:00
8:56 AM,71.1,66.9,87,29.97,10.0,Calm,Calm,-,N/A,,Scattered Clouds,0,2013-05-19 12:56:00
9:56 AM,75.0,68.0,79,29.99,10.0,SSE,4.6,-,N/A,,Mostly Cloudy,150,2013-05-19 13:56:00
10:56 AM,77.0,68.0,74,29.99,10.0,South,6.9,-,N/A,,Mostly Cloudy,190,2013-05-19 14:56:00
11:56 AM,80.1,66.9,64,29.97,10.0,Calm,Calm,-,N/A,,Scattered Clouds,0,2013-05-19 15:56:00
12:56 PM,81.0,66.9,62,29.96,10.0,Calm,Calm,-,N/A,,Mostly Cloudy,0,2013-05-19 16:56:00
1:56 PM,84.2,66.2,55,29.93,10.0,Calm,Calm,-,N/A,,Mostly Cloudy,0,2013-05-19 17:56:00
2:56 PM,84.9,68.0,57,29.91,10.0,SE,6.9,-,N/A,,Mostly Cloudy,140,2013-05-19 18:56:00
3:56 PM,84.0,66.9,56,29.91,10.0,SSE,5.8,-,N/A,,Mostly Cloudy,160,2013-05-19 19:56:00
4:56 PM,86.0,69.1,57,29.88,9.0,SSE,5.8,-,N/A,,Scattered Clouds,150,2013-05-19 20:56:00
5:56 PM,84.9,68.0,57,29.89,10.0,SSE,11.5,-,N/A,,Mostly Cloudy,150,2013-05-19 21:56:00
6:56 PM,84.9,69.1,59,29.88,10.0,South,8.1,-,N/A,,Mostly Cloudy,170,2013-05-19 22:56:00
7:56 PM,82.0,69.1,65,29.88,10.0,SSE,10.4,-,N/A,,Scattered Clouds,160,2013-05-19 23:56:00
8:56 PM,80.1,68.0,67,29.88,10.0,SSE,10.4,-,N/A,,Partly Cloudy,150,2013-05-20 00:56:00
9:56 PM,79.0,70.0,74,29.90,9.0,SSE,8.1,-,N/A,,Partly Cloudy,150,2013-05-20 01:56:00
10:56 PM,78.1,71.1,79,29.91,8.0,South,11.5,-,N/A,,Scattered Clouds,170,2013-05-20 02:56:00
11:56 PM,75.9,69.1,79,29.93,9.0,South,10.4,-,N/A,,Scattered Clouds,180,2013-05-20 03:56:00